Browning, Illinois
Current Conditions -  °F | °C
As of 11:35 AM on Thursday 23 Oct 2014 (Local Time) from KIJX Reporting Station
Clear Clear  
Wind Chill: 56°   Ceiling: Unl
Heat Index: 56°   Visibility: 10mi
Dew Point: 45°   Wind: 9mph
Humidity: 65%   Direction: 190°S
Pressure: 30.19"   Gusts: NA
Location:  40.13°N, 90.37°W
Report Text: KIJX 231635Z AUTO 19008KT 10SM CLR 14/07 A3019 RMK AO2 T01350071
Loading
Personal Weather Stations






























Interactive Weather Map
Tropical Storm Tracking
New forecast layout! Learn more

10-Day Weather Forecast

Advertisements
Track Severe Weather on mobile